International Falls, MN

8:55 PM CST on February 17, 2018 (GMT -0600)
Wayside Lane | | Change Station
Active Advisory: Winter Storm Watch

Elev 1115 ft 48.60 °N, 93.42 °W | Updated 1 minute ago

Light Snow
Light Snow
11.8 °F
Feels Like 12 °F
N
1.0
Wind Variable Wind from WNW
Gusts 2.0 mph

Today
High -- | Low -- °F
--% Chance of Precip.
Yesterday
High -- | Low -- °F
Precip. -- in
Pressure 29.90 in
Visibility 6.0 miles
Clouds Mostly Cloudy 2500 ft
Overcast 3500 ft
Windchill 12 °F
Dew Point 5 °F
Humidity 72%
Rainfall 0.00 in
Snow Depth Not available.
7:17 AM 5:38 PM
Waxing Crescent, 5% visible
SPECI KINL 180232Z AUTO 28009KT 6SM -SN BKN025 OVC035 M11/M17 A2990 RMK AO2 SNB32 P0000 T11061167
Pressure 29.90 in
Visibility 6.0 miles
Clouds Mostly Cloudy 2500 ft
Overcast 3500 ft
Windchill 12 °F
Dew Point 5 °F
Humidity 72%
Rainfall 0.00 in
Snow Depth Not available.
7:17 AM 5:38 PM
Waxing Crescent, 5% visible
SPECI KINL 180232Z AUTO 28009KT 6SM -SN BKN025 OVC035 M11/M17 A2990 RMK AO2 SNB32 P0000 T11061167

Get Your Daily Forecast Email!

Thanks for signing up!

Be on the lookout for a verification email in your inbox.

You'll start receiving severe weather alerts in your inbox..

×

10-Day Weather Forecast

Almanac

Astronomy

Feb. 17, 2018 Rise Set
Actual Time
Civil Twilight
Nautical Twilight
Astronomical Twilight
Moon
Length of Visible Light
Length of Day
Tomorrow will be .
, % of the Moon is Illuminated

Today's Extremes

State Highs State Lows

Community

WunderPhotos

Category 6

Welcome to Category 6. This is the collective home for Weather Underground's featured writeups by Dr. Jeff Masters (right), Bob Henson (left), Chris Burt, and other regular contributors.

Nearby

Air Quality

  Air Quality AQ Index Pollutant
Not available.

Snow Depth

Station Depth Elevation

Earthquake Activity

City Distance Mag. Time & Date
Minimum magnitude displayed is 2.5.

Coastal Water Temperatures

Place Temperature

Stations

Nearby Weather Stations

Station Location Temp. Windchill Dew Point Humidity Wind Precip. Elev Updated Type
                   

Watches & Warnings

Winter Storm Watch
Issued: 2:49 PM CST Feb. 17, 2018 – National Weather Service

... Winter Storm Watch in effect from Sunday morning through
Sunday afternoon...

* what... heavy snow possible. Total snow accumulations of 4 to 7
inches, are possible.

* Where... portions of north central and northeast Minnesota.

* When... Sunday.

* Additional details... plan on difficult travel conditions.
Significant reductions in visibility are possible.

Precautionary/preparedness actions...

A Winter Storm Watch means there is potential for significant
snow accumulations that may impact travel. Continue to monitor
the latest forecasts.